CCA1862 ZGSZ-RPLL
Flight info
| Callsign | CCA1862 |
|---|---|
| Flight time | 1h 40m |
| Altitude | 39000 |
| Route | SIERA2 SIERA DCT ROCCA DCT SKATE V642 NOMAN A461 AVMUP W16 TADEL |
| Aircraft | B772/H-SDE2E3FGHIJ5LORVWXY/LB1D1 |
Departure
| Time | 2026-04-15 02:10 |
|---|---|
| Airport | Shenzhen Bao'an International Airport (ZGSZ) |
Arrival
| Time | 2026-04-15 03:50 |
|---|---|
| Airport | Ninoy Aquino International Airport (RPLL) |
| Time | Latitude | Longitude | Altitude | Speed | Heading |
|---|---|---|---|---|---|
| 2026-04-15 01:49 | 22.63995 | 113.79964 | 28 ft | 0 kts | 318° |
| 2026-04-15 02:01 | 22.63988 | 113.79971 | 28 ft | 2 kts | 318° |
| 2026-04-15 02:01 | 22.63977 | 113.79981 | 28 ft | 2 kts | 318° |
| 2026-04-15 02:02 | 22.63966 | 113.79992 | 28 ft | 2 kts | 318° |
| 2026-04-15 02:02 | 22.63955 | 113.80003 | 28 ft | 2 kts | 318° |
| 2026-04-15 02:02 | 22.63944 | 113.80013 | 28 ft | 1 kts | 318° |
| 2026-04-15 02:02 | 22.63936 | 113.80021 | 28 ft | 2 kts | 310° |
| 2026-04-15 02:03 | 22.63929 | 113.80035 | 28 ft | 2 kts | 285° |
| 2026-04-15 02:03 | 22.63927 | 113.80050 | 28 ft | 2 kts | 266° |
| 2026-04-15 02:03 | 22.63930 | 113.80066 | 28 ft | 1 kts | 246° |
| 2026-04-15 02:03 | 22.63932 | 113.80072 | 28 ft | 0 kts | 243° |
| 2026-04-15 02:05 | 22.63931 | 113.80070 | 28 ft | 2 kts | 243° |
| 2026-04-15 02:05 | 22.63903 | 113.80011 | 28 ft | 14 kts | 243° |
| 2026-04-15 02:05 | 22.63844 | 113.79882 | 28 ft | 23 kts | 243° |
| 2026-04-15 02:06 | 22.63767 | 113.79723 | 28 ft | 23 kts | 242° |
| 2026-04-15 02:06 | 22.63776 | 113.79622 | 28 ft | 13 kts | 327° |
| 2026-04-15 02:06 | 22.63884 | 113.79560 | 28 ft | 20 kts | 332° |
| 2026-04-15 02:06 | 22.64019 | 113.79486 | 28 ft | 24 kts | 334° |
| 2026-04-15 02:07 | 22.64195 | 113.79390 | 28 ft | 30 kts | 334° |
| 2026-04-15 02:07 | 22.64382 | 113.79288 | 28 ft | 30 kts | 333° |
| 2026-04-15 02:07 | 22.64576 | 113.79182 | 28 ft | 31 kts | 333° |
| 2026-04-15 02:07 | 22.64770 | 113.79075 | 28 ft | 31 kts | 333° |
| 2026-04-15 02:08 | 22.64968 | 113.78966 | 28 ft | 32 kts | 333° |
| 2026-04-15 02:08 | 22.65159 | 113.78861 | 28 ft | 29 kts | 333° |
| 2026-04-15 02:08 | 22.65347 | 113.78760 | 28 ft | 28 kts | 333° |
| 2026-04-15 02:08 | 22.65491 | 113.78666 | 28 ft | 17 kts | 298° |
| 2026-04-15 02:09 | 22.65458 | 113.78542 | 28 ft | 18 kts | 240° |
| 2026-04-15 02:09 | 22.65349 | 113.78539 | 28 ft | 18 kts | 154° |
| 2026-04-15 02:09 | 22.65087 | 113.78683 | 28 ft | 77 kts | 154° |
| 2026-04-15 02:09 | 22.64401 | 113.79060 | 28 ft | 142 kts | 153° |
| 2026-04-15 02:10 | 22.63367 | 113.79624 | 143 ft | 181 kts | 153° |
| 2026-04-15 02:10 | 22.62252 | 113.80243 | 836 ft | 180 kts | 157° |
| 2026-04-15 02:10 | 22.61075 | 113.80479 | 1568 ft | 180 kts | 181° |
| 2026-04-15 02:10 | 22.59775 | 113.80171 | 1995 ft | 198 kts | 198° |
| 2026-04-15 02:11 | 22.58429 | 113.79650 | 2495 ft | 214 kts | 199° |
| 2026-04-15 02:11 | 22.56968 | 113.79077 | 3044 ft | 231 kts | 199° |
| 2026-04-15 02:11 | 22.55411 | 113.78467 | 3573 ft | 248 kts | 200° |
| 2026-04-15 02:11 | 22.53741 | 113.77811 | 4238 ft | 260 kts | 200° |
| 2026-04-15 02:12 | 22.52037 | 113.77142 | 5102 ft | 263 kts | 201° |
| 2026-04-15 02:12 | 22.50326 | 113.76447 | 5924 ft | 266 kts | 206° |
| 2026-04-15 02:12 | 22.48868 | 113.75243 | 6659 ft | 270 kts | 231° |
| 2026-04-15 02:12 | 22.48030 | 113.73431 | 7429 ft | 273 kts | 257° |
| 2026-04-15 02:13 | 22.47753 | 113.71412 | 8234 ft | 275 kts | 264° |
| 2026-04-15 02:13 | 22.47596 | 113.69344 | 9014 ft | 279 kts | 266° |
| 2026-04-15 02:13 | 22.47450 | 113.67254 | 9813 ft | 281 kts | 266° |
| 2026-04-15 02:13 | 22.47298 | 113.65133 | 10460 ft | 290 kts | 265° |
| 2026-04-15 02:14 | 22.47098 | 113.62904 | 10905 ft | 306 kts | 261° |
| 2026-04-15 02:14 | 22.46558 | 113.60619 | 11330 ft | 322 kts | 251° |
| 2026-04-15 02:14 | 22.45579 | 113.58381 | 11739 ft | 339 kts | 240° |
| 2026-04-15 02:14 | 22.44135 | 113.56294 | 12125 ft | 355 kts | 228° |
| 2026-04-15 02:15 | 22.42268 | 113.54449 | 12530 ft | 370 kts | 221° |
| 2026-04-15 02:15 | 22.40266 | 113.52657 | 13044 ft | 380 kts | 219° |
| 2026-04-15 02:15 | 22.38011 | 113.51087 | 13705 ft | 386 kts | 209° |
| 2026-04-15 02:15 | 22.35504 | 113.49993 | 14368 ft | 392 kts | 199° |
| 2026-04-15 02:16 | 22.32875 | 113.49285 | 15049 ft | 396 kts | 195° |
| 2026-04-15 02:16 | 22.30158 | 113.48618 | 15724 ft | 400 kts | 195° |
| 2026-04-15 02:16 | 22.27455 | 113.47957 | 16350 ft | 404 kts | 195° |
| 2026-04-15 02:16 | 22.24661 | 113.47404 | 16977 ft | 410 kts | 188° |
| 2026-04-15 02:17 | 22.21766 | 113.47364 | 17589 ft | 417 kts | 178° |
| 2026-04-15 02:17 | 22.18901 | 113.47880 | 18169 ft | 425 kts | 168° |
| 2026-04-15 02:17 | 22.16059 | 113.48850 | 18773 ft | 431 kts | 164° |
| 2026-04-15 02:17 | 22.13192 | 113.49912 | 19369 ft | 435 kts | 164° |
| 2026-04-15 02:18 | 22.10315 | 113.50978 | 19961 ft | 439 kts | 164° |
| 2026-04-15 02:18 | 22.07426 | 113.52045 | 20544 ft | 443 kts | 164° |
| 2026-04-15 02:18 | 22.04494 | 113.53123 | 21102 ft | 447 kts | 164° |
| 2026-04-15 02:18 | 22.01522 | 113.54215 | 21662 ft | 451 kts | 164° |
| 2026-04-15 02:19 | 21.98501 | 113.55123 | 22178 ft | 453 kts | 172° |
| 2026-04-15 02:19 | 21.95396 | 113.55517 | 22685 ft | 454 kts | 179° |
| 2026-04-15 02:19 | 21.92202 | 113.55725 | 23256 ft | 457 kts | 180° |
| 2026-04-15 02:19 | 21.89037 | 113.55917 | 23813 ft | 460 kts | 180° |
| 2026-04-15 02:20 | 21.85842 | 113.56110 | 24356 ft | 463 kts | 180° |
| 2026-04-15 02:20 | 21.82580 | 113.56308 | 24898 ft | 466 kts | 180° |
| 2026-04-15 02:20 | 21.79356 | 113.56504 | 25418 ft | 469 kts | 180° |
| 2026-04-15 02:20 | 21.76067 | 113.56704 | 25936 ft | 471 kts | 180° |
| 2026-04-15 02:21 | 21.72798 | 113.56925 | 26417 ft | 475 kts | 178° |
| 2026-04-15 02:21 | 21.69530 | 113.57540 | 26872 ft | 483 kts | 169° |
| 2026-04-15 02:21 | 21.66328 | 113.58700 | 27305 ft | 491 kts | 160° |
| 2026-04-15 02:21 | 21.63262 | 113.60411 | 27764 ft | 499 kts | 151° |
| 2026-04-15 02:22 | 21.60425 | 113.62639 | 28231 ft | 506 kts | 142° |
| 2026-04-15 02:22 | 21.57927 | 113.65293 | 28647 ft | 513 kts | 134° |
| 2026-04-15 02:22 | 21.55761 | 113.68401 | 29069 ft | 519 kts | 125° |
| 2026-04-15 02:23 | 21.52842 | 113.75491 | 29865 ft | 531 kts | 107° |
| 2026-04-15 02:23 | 21.52142 | 113.79444 | 30226 ft | 537 kts | 97° |
| 2026-04-15 02:23 | 21.52030 | 113.83433 | 30659 ft | 539 kts | 88° |
| 2026-04-15 02:23 | 21.52295 | 113.87436 | 31232 ft | 537 kts | 86° |
| 2026-04-15 02:24 | 21.52553 | 113.91402 | 31842 ft | 534 kts | 87° |
| 2026-04-15 02:24 | 21.52757 | 113.95344 | 32393 ft | 532 kts | 88° |
| 2026-04-15 02:24 | 21.52913 | 113.99303 | 32882 ft | 531 kts | 89° |
| 2026-04-15 02:24 | 21.53029 | 114.03242 | 33419 ft | 530 kts | 90° |
| 2026-04-15 02:25 | 21.53118 | 114.07171 | 34043 ft | 527 kts | 90° |
| 2026-04-15 02:25 | 21.53184 | 114.11077 | 34686 ft | 524 kts | 90° |
| 2026-04-15 02:25 | 21.53236 | 114.15000 | 35277 ft | 522 kts | 90° |
| 2026-04-15 02:25 | 21.53274 | 114.18833 | 35793 ft | 521 kts | 91° |
| 2026-04-15 02:26 | 21.53304 | 114.22743 | 36248 ft | 520 kts | 91° |
| 2026-04-15 02:26 | 21.53325 | 114.26618 | 36621 ft | 521 kts | 91° |
| 2026-04-15 02:26 | 21.53341 | 114.30561 | 36969 ft | 521 kts | 91° |
| 2026-04-15 02:26 | 21.53352 | 114.34420 | 37319 ft | 521 kts | 91° |
| 2026-04-15 02:27 | 21.53359 | 114.38297 | 37689 ft | 520 kts | 91° |
| 2026-04-15 02:27 | 21.53364 | 114.42184 | 38046 ft | 519 kts | 91° |
| 2026-04-15 02:27 | 21.53366 | 114.46079 | 38350 ft | 519 kts | 91° |
| 2026-04-15 02:27 | 21.53366 | 114.49947 | 38674 ft | 519 kts | 91° |
| 2026-04-15 02:28 | 21.53365 | 114.53818 | 38964 ft | 518 kts | 91° |
| 2026-04-15 02:28 | 21.53357 | 114.61537 | 38948 ft | 519 kts | 91° |
| 2026-04-15 02:29 | 21.53345 | 114.69317 | 38943 ft | 518 kts | 92° |
| 2026-04-15 02:29 | 21.53328 | 114.77009 | 38942 ft | 519 kts | 92° |
| 2026-04-15 02:30 | 21.53308 | 114.84781 | 38943 ft | 520 kts | 92° |
| 2026-04-15 02:30 | 21.53283 | 114.92484 | 38946 ft | 518 kts | 92° |
| 2026-04-15 02:31 | 21.53255 | 115.00236 | 38944 ft | 518 kts | 92° |
| 2026-04-15 02:31 | 21.53097 | 115.07964 | 38948 ft | 517 kts | 98° |
| 2026-04-15 02:32 | 21.51348 | 115.15324 | 38943 ft | 511 kts | 116° |
| 2026-04-15 02:32 | 21.47748 | 115.21815 | 38953 ft | 505 kts | 129° |
| 2026-04-15 02:33 | 21.43544 | 115.27859 | 38947 ft | 505 kts | 130° |
| 2026-04-15 02:33 | 21.39332 | 115.33835 | 38946 ft | 504 kts | 130° |
| 2026-04-15 02:34 | 21.35093 | 115.39816 | 38948 ft | 504 kts | 130° |
| 2026-04-15 02:34 | 21.30785 | 115.45866 | 38944 ft | 504 kts | 130° |
| 2026-04-15 02:35 | 21.26528 | 115.51831 | 38950 ft | 503 kts | 130° |
| 2026-04-15 02:35 | 21.22256 | 115.57806 | 38949 ft | 503 kts | 130° |
| 2026-04-15 02:36 | 21.17980 | 115.63776 | 38951 ft | 502 kts | 130° |
| 2026-04-15 02:36 | 21.13713 | 115.69728 | 38953 ft | 502 kts | 131° |
| 2026-04-15 02:37 | 21.09484 | 115.75616 | 38952 ft | 503 kts | 131° |
| 2026-04-15 02:37 | 21.05226 | 115.81541 | 38958 ft | 502 kts | 131° |
| 2026-04-15 02:38 | 21.00977 | 115.87447 | 38963 ft | 502 kts | 131° |
| 2026-04-15 02:38 | 20.96683 | 115.93408 | 38962 ft | 501 kts | 131° |
| 2026-04-15 02:39 | 20.92410 | 115.99334 | 38965 ft | 501 kts | 131° |
| 2026-04-15 02:39 | 20.88135 | 116.05257 | 38968 ft | 501 kts | 130° |
| 2026-04-15 02:40 | 20.83428 | 116.10649 | 38964 ft | 493 kts | 145° |
| 2026-04-15 02:40 | 20.77762 | 116.14723 | 38966 ft | 491 kts | 151° |
| 2026-04-15 02:41 | 20.72004 | 116.18636 | 38968 ft | 490 kts | 150° |
| 2026-04-15 02:41 | 20.66264 | 116.22528 | 38968 ft | 490 kts | 150° |
| 2026-04-15 02:42 | 20.60499 | 116.26433 | 38968 ft | 489 kts | 150° |
| 2026-04-15 02:42 | 20.54699 | 116.30355 | 38967 ft | 489 kts | 150° |
| 2026-04-15 02:43 | 20.48927 | 116.34255 | 38968 ft | 488 kts | 150° |
| 2026-04-15 02:43 | 20.43179 | 116.38134 | 38969 ft | 488 kts | 150° |
| 2026-04-15 02:44 | 20.37384 | 116.42042 | 38967 ft | 487 kts | 150° |
| 2026-04-15 02:44 | 20.31629 | 116.45919 | 38970 ft | 487 kts | 150° |
| 2026-04-15 02:45 | 20.25828 | 116.49824 | 38966 ft | 487 kts | 150° |
| 2026-04-15 02:45 | 20.20083 | 116.53688 | 38965 ft | 486 kts | 150° |
| 2026-04-15 02:46 | 20.14303 | 116.57571 | 38968 ft | 485 kts | 150° |
| 2026-04-15 02:46 | 20.08544 | 116.61437 | 38965 ft | 486 kts | 150° |
| 2026-04-15 02:47 | 20.02770 | 116.65311 | 38966 ft | 485 kts | 150° |
| 2026-04-15 02:47 | 19.97582 | 116.69963 | 38959 ft | 491 kts | 136° |
| 2026-04-15 02:48 | 19.92991 | 116.75282 | 38958 ft | 491 kts | 135° |
| 2026-04-15 02:48 | 19.88394 | 116.80626 | 38962 ft | 490 kts | 135° |
| 2026-04-15 02:49 | 19.83790 | 116.85967 | 38960 ft | 491 kts | 135° |
| 2026-04-15 02:49 | 19.79199 | 116.91285 | 38962 ft | 488 kts | 135° |
| 2026-04-15 02:50 | 19.74606 | 116.96600 | 38957 ft | 488 kts | 135° |
| 2026-04-15 02:50 | 19.70034 | 117.01884 | 38960 ft | 488 kts | 135° |
| 2026-04-15 02:51 | 19.65390 | 117.07246 | 38962 ft | 488 kts | 135° |
| 2026-04-15 02:51 | 19.60805 | 117.12535 | 38955 ft | 488 kts | 135° |
| 2026-04-15 02:52 | 19.56154 | 117.17896 | 38955 ft | 488 kts | 135° |
| 2026-04-15 02:52 | 19.51552 | 117.23195 | 38952 ft | 488 kts | 135° |
| 2026-04-15 02:53 | 19.46917 | 117.28527 | 38953 ft | 488 kts | 135° |
| 2026-04-15 02:53 | 19.42317 | 117.33813 | 38950 ft | 487 kts | 134° |
| 2026-04-15 02:54 | 19.37709 | 117.39105 | 38950 ft | 487 kts | 135° |
| 2026-04-15 02:54 | 19.33091 | 117.44403 | 38950 ft | 487 kts | 135° |
| 2026-04-15 02:55 | 19.28462 | 117.49709 | 38947 ft | 488 kts | 134° |
| 2026-04-15 02:55 | 19.23873 | 117.54964 | 38946 ft | 487 kts | 134° |
| 2026-04-15 02:56 | 19.19221 | 117.60287 | 38946 ft | 488 kts | 134° |
| 2026-04-15 02:56 | 19.14589 | 117.65582 | 38944 ft | 487 kts | 134° |
| 2026-04-15 02:57 | 19.10015 | 117.70807 | 38942 ft | 486 kts | 134° |
| 2026-04-15 02:57 | 19.05413 | 117.76059 | 38943 ft | 487 kts | 134° |
| 2026-04-15 02:58 | 19.00827 | 117.81288 | 38946 ft | 486 kts | 134° |
| 2026-04-15 02:58 | 18.96226 | 117.86529 | 38953 ft | 486 kts | 134° |
| 2026-04-15 02:59 | 18.91604 | 117.91788 | 38962 ft | 487 kts | 134° |
| 2026-04-15 02:59 | 18.87006 | 117.97018 | 38965 ft | 487 kts | 134° |
| 2026-04-15 03:00 | 18.82408 | 118.02241 | 38968 ft | 486 kts | 134° |
| 2026-04-15 03:00 | 18.77789 | 118.07485 | 38968 ft | 486 kts | 134° |
| 2026-04-15 03:01 | 18.73192 | 118.12698 | 38967 ft | 486 kts | 134° |
| 2026-04-15 03:01 | 18.68564 | 118.17944 | 38965 ft | 486 kts | 134° |
| 2026-04-15 03:02 | 18.63952 | 118.23164 | 38967 ft | 486 kts | 134° |
| 2026-04-15 03:02 | 18.59298 | 118.28429 | 38961 ft | 486 kts | 134° |
| 2026-04-15 03:03 | 18.54707 | 118.33620 | 38961 ft | 486 kts | 134° |
| 2026-04-15 03:03 | 18.50071 | 118.38854 | 38963 ft | 486 kts | 134° |
| 2026-04-15 03:04 | 18.45454 | 118.44064 | 38961 ft | 486 kts | 134° |
| 2026-04-15 03:04 | 18.40841 | 118.49265 | 38961 ft | 486 kts | 134° |
| 2026-04-15 03:05 | 18.36206 | 118.54487 | 38959 ft | 486 kts | 134° |
| 2026-04-15 03:05 | 18.31552 | 118.59725 | 38962 ft | 486 kts | 134° |
| 2026-04-15 03:06 | 18.26927 | 118.64925 | 38959 ft | 486 kts | 134° |
| 2026-04-15 03:06 | 18.22312 | 118.70111 | 38953 ft | 487 kts | 134° |
| 2026-04-15 03:07 | 18.17694 | 118.75296 | 38952 ft | 486 kts | 134° |
| 2026-04-15 03:07 | 18.13046 | 118.80509 | 38946 ft | 487 kts | 134° |
| 2026-04-15 03:08 | 18.08424 | 118.85690 | 38945 ft | 487 kts | 134° |
| 2026-04-15 03:08 | 18.03764 | 118.90909 | 38944 ft | 488 kts | 134° |
| 2026-04-15 03:09 | 17.98880 | 118.95826 | 38946 ft | 486 kts | 145° |
| 2026-04-15 03:09 | 17.93112 | 118.99462 | 38941 ft | 485 kts | 152° |
| 2026-04-15 03:10 | 17.87201 | 119.02899 | 38946 ft | 484 kts | 152° |
| 2026-04-15 03:10 | 17.81296 | 119.06325 | 38945 ft | 485 kts | 152° |
| 2026-04-15 03:11 | 17.75394 | 119.09745 | 38942 ft | 485 kts | 152° |
| 2026-04-15 03:11 | 17.69462 | 119.13178 | 38942 ft | 485 kts | 152° |
| 2026-04-15 03:12 | 17.63546 | 119.16601 | 38943 ft | 485 kts | 152° |
| 2026-04-15 03:12 | 17.57613 | 119.20029 | 38942 ft | 485 kts | 152° |
| 2026-04-15 03:13 | 17.51677 | 119.23457 | 38943 ft | 485 kts | 152° |
| 2026-04-15 03:13 | 17.45758 | 119.26872 | 38941 ft | 485 kts | 152° |
| 2026-04-15 03:14 | 17.39807 | 119.30303 | 38939 ft | 484 kts | 152° |
| 2026-04-15 03:14 | 17.33896 | 119.33708 | 38939 ft | 485 kts | 152° |
| 2026-04-15 03:15 | 17.27993 | 119.37107 | 38938 ft | 484 kts | 152° |
| 2026-04-15 03:15 | 17.22018 | 119.40544 | 38938 ft | 485 kts | 152° |
| 2026-04-15 03:16 | 17.16120 | 119.43935 | 38933 ft | 485 kts | 152° |
| 2026-04-15 03:16 | 17.10185 | 119.47343 | 38930 ft | 484 kts | 152° |
| 2026-04-15 03:17 | 17.04278 | 119.50735 | 38923 ft | 484 kts | 152° |
| 2026-04-15 03:17 | 16.98369 | 119.54124 | 38916 ft | 485 kts | 151° |
| 2026-04-15 03:18 | 16.92418 | 119.57535 | 38911 ft | 485 kts | 152° |
| 2026-04-15 03:18 | 16.86518 | 119.60914 | 38913 ft | 485 kts | 152° |
| 2026-04-15 03:19 | 16.80582 | 119.64311 | 38912 ft | 485 kts | 152° |
| 2026-04-15 03:19 | 16.74665 | 119.67696 | 38907 ft | 484 kts | 152° |
| 2026-04-15 03:20 | 16.68765 | 119.71067 | 38908 ft | 483 kts | 152° |
| 2026-04-15 03:20 | 16.62833 | 119.74455 | 38914 ft | 483 kts | 152° |
| 2026-04-15 03:21 | 16.56958 | 119.77808 | 38917 ft | 483 kts | 152° |
| 2026-04-15 03:21 | 16.48104 | 119.82857 | 38883 ft | 480 kts | 152° |
| 2026-04-15 03:22 | 16.45176 | 119.84525 | 38213 ft | 476 kts | 152° |
| 2026-04-15 03:22 | 16.42273 | 119.86179 | 37048 ft | 481 kts | 152° |
| 2026-04-15 03:22 | 16.39319 | 119.87861 | 36095 ft | 482 kts | 152° |
| 2026-04-15 03:22 | 16.36405 | 119.89520 | 35217 ft | 482 kts | 152° |
| 2026-04-15 03:23 | 16.33457 | 119.91197 | 34300 ft | 482 kts | 152° |
| 2026-04-15 03:23 | 16.30511 | 119.92873 | 33374 ft | 483 kts | 152° |
| 2026-04-15 03:23 | 16.27569 | 119.94546 | 32458 ft | 483 kts | 152° |
| 2026-04-15 03:23 | 16.24595 | 119.96236 | 31601 ft | 485 kts | 152° |
| 2026-04-15 03:24 | 16.21623 | 119.97925 | 30720 ft | 486 kts | 151° |
| 2026-04-15 03:24 | 16.18681 | 119.99596 | 30202 ft | 489 kts | 151° |
| 2026-04-15 03:24 | 16.15650 | 120.01317 | 29683 ft | 496 kts | 150° |
| 2026-04-15 03:24 | 16.12643 | 120.03024 | 29120 ft | 495 kts | 150° |
| 2026-04-15 03:25 | 16.09615 | 120.04742 | 28521 ft | 490 kts | 150° |
| 2026-04-15 03:25 | 16.06631 | 120.06434 | 27919 ft | 486 kts | 150° |
| 2026-04-15 03:25 | 16.03692 | 120.08101 | 27339 ft | 481 kts | 150° |
| 2026-04-15 03:25 | 16.00767 | 120.09759 | 26744 ft | 477 kts | 150° |
| 2026-04-15 03:26 | 15.97846 | 120.11414 | 26147 ft | 473 kts | 150° |
| 2026-04-15 03:26 | 15.94980 | 120.13037 | 25563 ft | 469 kts | 150° |
| 2026-04-15 03:26 | 15.92103 | 120.14667 | 24962 ft | 465 kts | 150° |
| 2026-04-15 03:26 | 15.89301 | 120.16253 | 24374 ft | 462 kts | 150° |
| 2026-04-15 03:27 | 15.86462 | 120.17860 | 23768 ft | 458 kts | 150° |
| 2026-04-15 03:27 | 15.83697 | 120.19424 | 23162 ft | 455 kts | 150° |
| 2026-04-15 03:27 | 15.80918 | 120.20996 | 22563 ft | 451 kts | 150° |
| 2026-04-15 03:27 | 15.78182 | 120.22543 | 21963 ft | 448 kts | 150° |
| 2026-04-15 03:28 | 15.75415 | 120.24107 | 21353 ft | 445 kts | 150° |
| 2026-04-15 03:28 | 15.72720 | 120.25629 | 20749 ft | 442 kts | 150° |
| 2026-04-15 03:28 | 15.70041 | 120.27142 | 20168 ft | 439 kts | 150° |
| 2026-04-15 03:28 | 15.67348 | 120.28664 | 19548 ft | 437 kts | 150° |
| 2026-04-15 03:29 | 15.64678 | 120.30171 | 18944 ft | 434 kts | 150° |
| 2026-04-15 03:29 | 15.62059 | 120.31649 | 18346 ft | 431 kts | 150° |
| 2026-04-15 03:29 | 15.59431 | 120.33131 | 17745 ft | 429 kts | 150° |
| 2026-04-15 03:29 | 15.56797 | 120.34618 | 17123 ft | 427 kts | 150° |
| 2026-04-15 03:30 | 15.54213 | 120.36074 | 16715 ft | 419 kts | 150° |
| 2026-04-15 03:30 | 15.51708 | 120.37485 | 16601 ft | 403 kts | 150° |
| 2026-04-15 03:30 | 15.49254 | 120.38869 | 16479 ft | 389 kts | 150° |
| 2026-04-15 03:30 | 15.46926 | 120.40179 | 16323 ft | 377 kts | 150° |
| 2026-04-15 03:31 | 15.44647 | 120.41464 | 16171 ft | 365 kts | 150° |
| 2026-04-15 03:31 | 15.42455 | 120.42696 | 16030 ft | 354 kts | 150° |
| 2026-04-15 03:31 | 15.40189 | 120.43663 | 15870 ft | 346 kts | 160° |
| 2026-04-15 03:31 | 15.37898 | 120.44414 | 15565 ft | 342 kts | 161° |
| 2026-04-15 03:32 | 15.35633 | 120.45130 | 15274 ft | 337 kts | 161° |
| 2026-04-15 03:32 | 15.33421 | 120.45830 | 15001 ft | 333 kts | 161° |
| 2026-04-15 03:32 | 15.31217 | 120.46528 | 14745 ft | 328 kts | 161° |
| 2026-04-15 03:32 | 15.29026 | 120.47224 | 14478 ft | 323 kts | 161° |
| 2026-04-15 03:33 | 15.26889 | 120.47903 | 14225 ft | 321 kts | 161° |
| 2026-04-15 03:33 | 15.24750 | 120.48582 | 13978 ft | 321 kts | 161° |
| 2026-04-15 03:33 | 15.22606 | 120.49263 | 13716 ft | 321 kts | 161° |
| 2026-04-15 03:33 | 15.20466 | 120.49942 | 13459 ft | 319 kts | 161° |
| 2026-04-15 03:34 | 15.18347 | 120.50614 | 13201 ft | 317 kts | 161° |
| 2026-04-15 03:34 | 15.16256 | 120.51278 | 12958 ft | 315 kts | 161° |
| 2026-04-15 03:34 | 15.14140 | 120.51949 | 12709 ft | 315 kts | 161° |
| 2026-04-15 03:34 | 15.12059 | 120.52609 | 12460 ft | 314 kts | 161° |
| 2026-04-15 03:35 | 15.09968 | 120.53272 | 12209 ft | 312 kts | 161° |
| 2026-04-15 03:35 | 15.07897 | 120.53928 | 11956 ft | 310 kts | 161° |
| 2026-04-15 03:35 | 15.05827 | 120.54585 | 11711 ft | 309 kts | 161° |
| 2026-04-15 03:35 | 15.03768 | 120.55238 | 11469 ft | 308 kts | 161° |
| 2026-04-15 03:36 | 15.01728 | 120.55884 | 11217 ft | 306 kts | 161° |
| 2026-04-15 03:36 | 14.99687 | 120.56530 | 10968 ft | 305 kts | 161° |
| 2026-04-15 03:36 | 14.97660 | 120.57172 | 10786 ft | 303 kts | 161° |
| 2026-04-15 03:36 | 14.95629 | 120.57816 | 10556 ft | 303 kts | 161° |
| 2026-04-15 03:37 | 14.93611 | 120.58454 | 10337 ft | 300 kts | 161° |
| 2026-04-15 03:37 | 14.91636 | 120.59079 | 10085 ft | 297 kts | 161° |
| 2026-04-15 03:37 | 14.89653 | 120.59706 | 9836 ft | 293 kts | 161° |
| 2026-04-15 03:37 | 14.87708 | 120.60321 | 9590 ft | 289 kts | 161° |
| 2026-04-15 03:38 | 14.85809 | 120.60922 | 9348 ft | 285 kts | 161° |
| 2026-04-15 03:38 | 14.83905 | 120.61523 | 9118 ft | 282 kts | 161° |
| 2026-04-15 03:38 | 14.82042 | 120.62112 | 8869 ft | 280 kts | 161° |
| 2026-04-15 03:38 | 14.80155 | 120.62709 | 8647 ft | 281 kts | 161° |
| 2026-04-15 03:39 | 14.78295 | 120.63296 | 8427 ft | 280 kts | 161° |
| 2026-04-15 03:39 | 14.76418 | 120.63890 | 8177 ft | 278 kts | 161° |
| 2026-04-15 03:39 | 14.74588 | 120.64468 | 7952 ft | 276 kts | 161° |
| 2026-04-15 03:39 | 14.72752 | 120.65048 | 7743 ft | 275 kts | 161° |
| 2026-04-15 03:40 | 14.70902 | 120.65633 | 7507 ft | 275 kts | 161° |
| 2026-04-15 03:40 | 14.69080 | 120.66207 | 7277 ft | 273 kts | 161° |
| 2026-04-15 03:40 | 14.67266 | 120.66780 | 7037 ft | 272 kts | 161° |
| 2026-04-15 03:40 | 14.65441 | 120.67355 | 6841 ft | 271 kts | 161° |
| 2026-04-15 03:41 | 14.63635 | 120.67926 | 6590 ft | 270 kts | 161° |
| 2026-04-15 03:41 | 14.61844 | 120.68523 | 6356 ft | 267 kts | 155° |
| 2026-04-15 03:41 | 14.60188 | 120.69389 | 6155 ft | 263 kts | 148° |
| 2026-04-15 03:41 | 14.58612 | 120.70317 | 5959 ft | 259 kts | 148° |
| 2026-04-15 03:42 | 14.57045 | 120.71243 | 5764 ft | 256 kts | 148° |
| 2026-04-15 03:42 | 14.55490 | 120.72156 | 5512 ft | 251 kts | 148° |
| 2026-04-15 03:42 | 14.53997 | 120.73032 | 5335 ft | 245 kts | 148° |
| 2026-04-15 03:42 | 14.52512 | 120.73901 | 5138 ft | 240 kts | 148° |
| 2026-04-15 03:43 | 14.51073 | 120.74744 | 4938 ft | 235 kts | 148° |
| 2026-04-15 03:43 | 14.49648 | 120.75580 | 4700 ft | 234 kts | 148° |
| 2026-04-15 03:43 | 14.48226 | 120.76414 | 4439 ft | 234 kts | 148° |
| 2026-04-15 03:43 | 14.46808 | 120.77245 | 4175 ft | 233 kts | 148° |
| 2026-04-15 03:44 | 14.45400 | 120.78070 | 3947 ft | 230 kts | 148° |
| 2026-04-15 03:44 | 14.44017 | 120.78881 | 3699 ft | 227 kts | 148° |
| 2026-04-15 03:44 | 14.42651 | 120.79681 | 3463 ft | 224 kts | 148° |
| 2026-04-15 03:44 | 14.41387 | 120.80587 | 3220 ft | 222 kts | 129° |
| 2026-04-15 03:45 | 14.40724 | 120.81982 | 3002 ft | 217 kts | 97° |
| 2026-04-15 03:45 | 14.40853 | 120.83511 | 2833 ft | 212 kts | 72° |
| 2026-04-15 03:45 | 14.41425 | 120.84914 | 2641 ft | 211 kts | 64° |
| 2026-04-15 03:45 | 14.42110 | 120.86221 | 2475 ft | 207 kts | 61° |
| 2026-04-15 03:46 | 14.42793 | 120.87450 | 2340 ft | 188 kts | 61° |
| 2026-04-15 03:46 | 14.43416 | 120.88571 | 2175 ft | 172 kts | 62° |
| 2026-04-15 03:46 | 14.43988 | 120.89598 | 2036 ft | 157 kts | 62° |
| 2026-04-15 03:46 | 14.44509 | 120.90536 | 1915 ft | 142 kts | 62° |
| 2026-04-15 03:47 | 14.44988 | 120.91399 | 1821 ft | 137 kts | 62° |
| 2026-04-15 03:47 | 14.45461 | 120.92251 | 1721 ft | 137 kts | 62° |
| 2026-04-15 03:47 | 14.45937 | 120.93108 | 1583 ft | 139 kts | 62° |
| 2026-04-15 03:47 | 14.46419 | 120.93973 | 1387 ft | 138 kts | 62° |
| 2026-04-15 03:48 | 14.46904 | 120.94841 | 1199 ft | 138 kts | 62° |
| 2026-04-15 03:48 | 14.47377 | 120.95689 | 1011 ft | 137 kts | 62° |
| 2026-04-15 03:48 | 14.47856 | 120.96551 | 827 ft | 138 kts | 62° |
| 2026-04-15 03:48 | 14.48339 | 120.97418 | 644 ft | 138 kts | 62° |
| 2026-04-15 03:49 | 14.48820 | 120.98281 | 464 ft | 138 kts | 62° |
| 2026-04-15 03:49 | 14.49302 | 120.99142 | 285 ft | 139 kts | 61° |
| 2026-04-15 03:49 | 14.49780 | 120.99995 | 114 ft | 137 kts | 62° |
| 2026-04-15 03:49 | 14.50238 | 121.00830 | 43 ft | 120 kts | 60° |
| 2026-04-15 03:50 | 14.50594 | 121.01471 | 53 ft | 86 kts | 60° |
| 2026-04-15 03:50 | 14.50804 | 121.01749 | 57 ft | 21 kts | 38° |
| 2026-04-15 03:50 | 14.50885 | 121.01779 | 58 ft | 11 kts | 339° |
| 2026-04-15 03:50 | 14.50929 | 121.01746 | 59 ft | 6 kts | 320° |
| 2026-04-15 03:51 | 14.50954 | 121.01696 | 60 ft | 10 kts | 267° |
| 2026-04-15 03:51 | 14.50954 | 121.01611 | 60 ft | 13 kts | 306° |
| 2026-04-15 03:51 | 14.51012 | 121.01539 | 61 ft | 9 kts | 290° |
| 2026-04-15 03:51 | 14.50991 | 121.01468 | 60 ft | 10 kts | 251° |
| 2026-04-15 03:52 | 14.50985 | 121.01447 | 61 ft | 0 kts | 252° |
| 2026-04-15 03:52 | 14.50984 | 121.01447 | 61 ft | 0 kts | 252° |